sensor_id;sensor_type;location;lat;lon;timestamp;temperature;humidity
20594;DHT22;10455;48.732;10.266;2024-03-23T00:53:41;5.10;99.90
20594;DHT22;10455;48.732;10.266;2024-03-23T00:58:43;5.40;99.90
20594;DHT22;10455;48.732;10.266;2024-03-23T01:03:45;7.10;99.90
20594;DHT22;10455;48.732;10.266;2024-03-23T01:08:48;7.50;99.90
20594;DHT22;10455;48.732;10.266;2024-03-23T01:13:50;7.70;99.90
20594;DHT22;10455;48.732;10.266;2024-03-23T01:18:52;7.80;99.90
20594;DHT22;10455;48.732;10.266;2024-03-23T01:23:56;7.80;99.90
20594;DHT22;10455;48.732;10.266;2024-03-23T01:28:57;7.90;99.90
20594;DHT22;10455;48.732;10.266;2024-03-23T01:33:59;8.30;99.90
20594;DHT22;10455;48.732;10.266;2024-03-23T01:39:05;8.60;99.90
20594;DHT22;10455;48.732;10.266;2024-03-23T01:44:09;8.70;99.90
20594;DHT22;10455;48.732;10.266;2024-03-23T01:49:12;8.70;99.90
20594;DHT22;10455;48.732;10.266;2024-03-23T01:54:17;8.90;99.90
20594;DHT22;10455;48.732;10.266;2024-03-23T01:59:19;8.90;99.90
20594;DHT22;10455;48.732;10.266;2024-03-23T02:04:21;8.90;99.90
20594;DHT22;10455;48.732;10.266;2024-03-23T02:09:24;8.70;99.90
20594;DHT22;10455;48.732;10.266;2024-03-23T02:14:26;8.60;99.90
20594;DHT22;10455;48.732;10.266;2024-03-23T02:19:28;8.40;99.90
20594;DHT22;10455;48.732;10.266;2024-03-23T02:24:32;8.30;99.90
20594;DHT22;10455;48.732;10.266;2024-03-23T02:29:34;8.40;99.90
20594;DHT22;10455;48.732;10.266;2024-03-23T02:34:36;8.70;99.90
20594;DHT22;10455;48.732;10.266;2024-03-23T02:39:40;8.80;99.90
20594;DHT22;10455;48.732;10.266;2024-03-23T02:44:41;8.90;99.90
20594;DHT22;10455;48.732;10.266;2024-03-23T02:49:43;8.90;99.90
20594;DHT22;10455;48.732;10.266;2024-03-23T02:54:47;8.90;99.90
20594;DHT22;10455;48.732;10.266;2024-03-23T02:59:48;8.90;99.90
20594;DHT22;10455;48.732;10.266;2024-03-23T03:04:50;9.10;99.90
20594;DHT22;10455;48.732;10.266;2024-03-23T03:09:53;9.10;99.90
20594;DHT22;10455;48.732;10.266;2024-03-23T03:14:55;9.20;99.90
20594;DHT22;10455;48.732;10.266;2024-03-23T03:19:57;9.30;99.90
20594;DHT22;10455;48.732;10.266;2024-03-23T03:25:01;9.60;99.90
20594;DHT22;10455;48.732;10.266;2024-03-23T03:30:04;9.60;99.90
20594;DHT22;10455;48.732;10.266;2024-03-23T03:35:09;9.70;99.90
20594;DHT22;10455;48.732;10.266;2024-03-23T03:40:13;9.70;99.90
20594;DHT22;10455;48.732;10.266;2024-03-23T03:45:15;10.00;99.90
20594;DHT22;10455;48.732;10.266;2024-03-23T03:50:17;10.00;99.90
20594;DHT22;10455;48.732;10.266;2024-03-23T03:55:21;10.00;99.90
20594;DHT22;10455;48.732;10.266;2024-03-23T04:00:23;10.00;99.90
20594;DHT22;10455;48.732;10.266;2024-03-23T04:05:24;9.80;99.90
20594;DHT22;10455;48.732;10.266;2024-03-23T04:10:28;9.80;99.90
20594;DHT22;10455;48.732;10.266;2024-03-23T04:15:30;9.60;99.90
20594;DHT22;10455;48.732;10.266;2024-03-23T04:20:32;9.60;99.90
20594;DHT22;10455;48.732;10.266;2024-03-23T04:25:35;10.00;99.90
20594;DHT22;10455;48.732;10.266;2024-03-23T04:30:37;10.00;99.90
20594;DHT22;10455;48.732;10.266;2024-03-23T04:35:39;10.10;99.90
20594;DHT22;10455;48.732;10.266;2024-03-23T04:40:42;9.80;99.90
20594;DHT22;10455;48.732;10.266;2024-03-23T04:45:45;9.40;99.90
20594;DHT22;10455;48.732;10.266;2024-03-23T04:50:47;9.40;99.90
20594;DHT22;10455;48.732;10.266;2024-03-23T04:55:51;9.20;99.90
20594;DHT22;10455;48.732;10.266;2024-03-23T05:00:54;9.10;99.90
20594;DHT22;10455;48.732;10.266;2024-03-23T05:05:56;9.00;99.90
20594;DHT22;10455;48.732;10.266;2024-03-23T05:11:00;9.10;99.90
20594;DHT22;10455;48.732;10.266;2024-03-23T05:16:03;9.30;99.90
20594;DHT22;10455;48.732;10.266;2024-03-23T05:21:05;9.20;99.90
20594;DHT22;10455;48.732;10.266;2024-03-23T05:26:08;9.20;99.90
20594;DHT22;10455;48.732;10.266;2024-03-23T05:31:11;9.20;99.90
20594;DHT22;10455;48.732;10.266;2024-03-23T05:36:13;9.30;99.90
20594;DHT22;10455;48.732;10.266;2024-03-23T05:41:16;9.50;99.90
20594;DHT22;10455;48.732;10.266;2024-03-23T05:46:18;9.70;99.90
20594;DHT22;10455;48.732;10.266;2024-03-23T05:51:20;9.80;99.90
20594;DHT22;10455;48.732;10.266;2024-03-23T05:56:23;10.30;99.90
20594;DHT22;10455;48.732;10.266;2024-03-23T06:01:26;11.10;99.90
20594;DHT22;10455;48.732;10.266;2024-03-23T06:06:29;12.30;99.90
20594;DHT22;10455;48.732;10.266;2024-03-23T06:11:33;12.60;99.90
20594;DHT22;10455;48.732;10.266;2024-03-23T06:16:35;10.70;99.90
20594;DHT22;10455;48.732;10.266;2024-03-23T06:21:37;9.90;99.90
20594;DHT22;10455;48.732;10.266;2024-03-23T06:26:40;9.70;99.90
20594;DHT22;10455;48.732;10.266;2024-03-23T06:31:42;9.30;99.90
20594;DHT22;10455;48.732;10.266;2024-03-23T06:36:44;8.90;99.90
20594;DHT22;10455;48.732;10.266;2024-03-23T06:41:53;8.50;99.90
20594;DHT22;10455;48.732;10.266;2024-03-23T06:46:55;8.10;99.90
20594;DHT22;10455;48.732;10.266;2024-03-23T06:51:58;7.90;99.90
20594;DHT22;10455;48.732;10.266;2024-03-23T06:57:01;7.90;99.90
20594;DHT22;10455;48.732;10.266;2024-03-23T07:02:03;7.60;99.90
20594;DHT22;10455;48.732;10.266;2024-03-23T07:07:05;7.30;99.90
20594;DHT22;10455;48.732;10.266;2024-03-23T07:12:09;7.30;99.90
20594;DHT22;10455;48.732;10.266;2024-03-23T07:17:11;7.40;99.90
20594;DHT22;10455;48.732;10.266;2024-03-23T07:22:12;7.40;99.90
20594;DHT22;10455;48.732;10.266;2024-03-23T07:27:16;7.50;99.90
20594;DHT22;10455;48.732;10.266;2024-03-23T07:32:18;7.90;99.90
20594;DHT22;10455;48.732;10.266;2024-03-23T07:37:20;8.20;99.90
20594;DHT22;10455;48.732;10.266;2024-03-23T07:42:23;8.20;99.90
20594;DHT22;10455;48.732;10.266;2024-03-23T07:47:27;8.00;99.90
20594;DHT22;10455;48.732;10.266;2024-03-23T07:52:29;7.80;99.90
20594;DHT22;10455;48.732;10.266;2024-03-23T07:57:32;8.10;99.90
20594;DHT22;10455;48.732;10.266;2024-03-23T08:02:34;9.40;99.90
20594;DHT22;10455;48.732;10.266;2024-03-23T08:07:36;10.20;99.90
20594;DHT22;10455;48.732;10.266;2024-03-23T08:12:39;9.40;99.90
20594;DHT22;10455;48.732;10.266;2024-03-23T08:17:41;9.50;99.90
20594;DHT22;10455;48.732;10.266;2024-03-23T08:22:43;9.00;99.90
20594;DHT22;10455;48.732;10.266;2024-03-23T08:27:46;8.80;99.90
20594;DHT22;10455;48.732;10.266;2024-03-23T08:32:48;9.70;99.90
20594;DHT22;10455;48.732;10.266;2024-03-23T08:37:50;10.00;99.90
20594;DHT22;10455;48.732;10.266;2024-03-23T08:42:54;9.50;99.90
20594;DHT22;10455;48.732;10.266;2024-03-23T08:47:56;8.70;99.90
20594;DHT22;10455;48.732;10.266;2024-03-23T08:52:57;9.60;99.90
20594;DHT22;10455;48.732;10.266;2024-03-23T08:58:01;8.80;99.90
20594;DHT22;10455;48.732;10.266;2024-03-23T09:03:03;7.90;99.90
20594;DHT22;10455;48.732;10.266;2024-03-23T09:08:06;8.20;99.90
20594;DHT22;10455;48.732;10.266;2024-03-23T09:13:10;8.30;99.90
20594;DHT22;10455;48.732;10.266;2024-03-23T09:18:12;8.20;99.90
20594;DHT22;10455;48.732;10.266;2024-03-23T09:23:14;8.20;99.90
20594;DHT22;10455;48.732;10.266;2024-03-23T09:28:17;8.50;99.90
20594;DHT22;10455;48.732;10.266;2024-03-23T09:33:19;8.60;99.90
20594;DHT22;10455;48.732;10.266;2024-03-23T09:38:21;7.90;99.90
20594;DHT22;10455;48.732;10.266;2024-03-23T09:43:24;7.00;99.90
20594;DHT22;10455;48.732;10.266;2024-03-23T09:48:27;7.40;99.90
20594;DHT22;10455;48.732;10.266;2024-03-23T09:53:29;7.50;99.90
20594;DHT22;10455;48.732;10.266;2024-03-23T09:58:33;7.90;99.90
20594;DHT22;10455;48.732;10.266;2024-03-23T10:03:42;7.90;99.90
20594;DHT22;10455;48.732;10.266;2024-03-23T10:08:44;7.60;99.90
20594;DHT22;10455;48.732;10.266;2024-03-23T10:13:48;8.40;99.90
20594;DHT22;10455;48.732;10.266;2024-03-23T10:18:50;11.40;99.90
20594;DHT22;10455;48.732;10.266;2024-03-23T10:23:52;10.80;99.90
20594;DHT22;10455;48.732;10.266;2024-03-23T10:28:56;8.80;99.90
20594;DHT22;10455;48.732;10.266;2024-03-23T10:34:02;7.40;99.90
20594;DHT22;10455;48.732;10.266;2024-03-23T10:39:05;8.50;99.90
20594;DHT22;10455;48.732;10.266;2024-03-23T10:44:10;9.30;99.90
20594;DHT22;10455;48.732;10.266;2024-03-23T10:49:13;9.00;99.90
20594;DHT22;10455;48.732;10.266;2024-03-23T10:54:15;10.10;99.90
20594;DHT22;10455;48.732;10.266;2024-03-23T10:59:18;11.30;99.90
20594;DHT22;10455;48.732;10.266;2024-03-23T11:04:30;12.20;99.90
20594;DHT22;10455;48.732;10.266;2024-03-23T11:09:39;12.10;99.90
20594;DHT22;10455;48.732;10.266;2024-03-23T11:14:42;13.80;99.90
20594;DHT22;10455;48.732;10.266;2024-03-23T11:19:46;13.80;99.90
20594;DHT22;10455;48.732;10.266;2024-03-23T11:24:54;12.00;99.90
20594;DHT22;10455;48.732;10.266;2024-03-23T11:30:14;11.10;99.90
20594;DHT22;10455;48.732;10.266;2024-03-23T11:35:27;11.40;99.90
20594;DHT22;10455;48.732;10.266;2024-03-23T11:40:29;11.40;99.90
20594;DHT22;10455;48.732;10.266;2024-03-23T11:45:37;13.10;99.90
20594;DHT22;10455;48.732;10.266;2024-03-23T11:50:41;14.50;99.90
20594;DHT22;10455;48.732;10.266;2024-03-23T11:55:47;13.90;98.60
20594;DHT22;10455;48.732;10.266;2024-03-23T12:00:51;14.30;99.90
20594;DHT22;10455;48.732;10.266;2024-03-23T12:05:54;14.00;98.70
20594;DHT22;10455;48.732;10.266;2024-03-23T12:11:05;11.90;99.90
20594;DHT22;10455;48.732;10.266;2024-03-23T12:16:13;8.10;99.90
20594;DHT22;10455;48.732;10.266;2024-03-23T12:21:15;6.90;99.90
20594;DHT22;10455;48.732;10.266;2024-03-23T12:26:20;7.10;99.90
20594;DHT22;10455;48.732;10.266;2024-03-23T12:31:25;7.30;99.90
20594;DHT22;10455;48.732;10.266;2024-03-23T12:36:27;7.20;99.90
20594;DHT22;10455;48.732;10.266;2024-03-23T12:41:29;7.60;99.90
20594;DHT22;10455;48.732;10.266;2024-03-23T12:46:32;8.60;99.90
20594;DHT22;10455;48.732;10.266;2024-03-23T12:51:34;7.80;99.90
20594;DHT22;10455;48.732;10.266;2024-03-23T12:56:36;9.10;99.90
20594;DHT22;10455;48.732;10.266;2024-03-23T13:01:39;10.10;99.90
20594;DHT22;10455;48.732;10.266;2024-03-23T13:06:41;10.70;99.90
20594;DHT22;10455;48.732;10.266;2024-03-23T13:11:43;11.60;99.90
20594;DHT22;10455;48.732;10.266;2024-03-23T13:16:46;10.80;99.90
20594;DHT22;10455;48.732;10.266;2024-03-23T13:21:48;10.20;99.90
20594;DHT22;10455;48.732;10.266;2024-03-23T13:26:50;10.40;99.90
20594;DHT22;10455;48.732;10.266;2024-03-23T13:31:54;11.40;99.90
20594;DHT22;10455;48.732;10.266;2024-03-23T13:36:56;10.20;99.90
20594;DHT22;10455;48.732;10.266;2024-03-23T13:41:59;8.90;99.90
20594;DHT22;10455;48.732;10.266;2024-03-23T13:47:03;10.40;99.90
20594;DHT22;10455;48.732;10.266;2024-03-23T13:52:05;11.00;99.90
20594;DHT22;10455;48.732;10.266;2024-03-23T13:57:07;11.30;99.90
20594;DHT22;10455;48.732;10.266;2024-03-23T14:02:12;12.10;99.90
20594;DHT22;10455;48.732;10.266;2024-03-23T14:07:15;13.10;99.90
20594;DHT22;10455;48.732;10.266;2024-03-23T14:12:18;13.90;99.90
20594;DHT22;10455;48.732;10.266;2024-03-23T14:17:23;13.20;99.90
20594;DHT22;10455;48.732;10.266;2024-03-23T14:22:26;11.30;99.90
20594;DHT22;10455;48.732;10.266;2024-03-23T14:27:28;11.60;99.90
20594;DHT22;10455;48.732;10.266;2024-03-23T14:32:32;12.30;99.90
20594;DHT22;10455;48.732;10.266;2024-03-23T14:37:34;14.20;99.90
20594;DHT22;10455;48.732;10.266;2024-03-23T14:42:37;14.20;99.40
20594;DHT22;10455;48.732;10.266;2024-03-23T14:47:41;12.60;99.10
20594;DHT22;10455;48.732;10.266;2024-03-23T14:52:44;10.80;99.90
20594;DHT22;10455;48.732;10.266;2024-03-23T14:57:48;11.00;99.90
20594;DHT22;10455;48.732;10.266;2024-03-23T15:02:52;12.10;99.90
20594;DHT22;10455;48.732;10.266;2024-03-23T15:07:54;12.30;99.50
20594;DHT22;10455;48.732;10.266;2024-03-23T15:12:56;11.90;98.20
20594;DHT22;10455;48.732;10.266;2024-03-23T15:17:59;10.10;99.70
20594;DHT22;10455;48.732;10.266;2024-03-23T15:23:02;9.10;99.90
20594;DHT22;10455;48.732;10.266;2024-03-23T15:28:04;7.60;99.90
20594;DHT22;10455;48.732;10.266;2024-03-23T15:33:07;6.40;99.90
20594;DHT22;10455;48.732;10.266;2024-03-23T15:38:09;6.10;99.90
20594;DHT22;10455;48.732;10.266;2024-03-23T15:43:11;6.40;99.90
20594;DHT22;10455;48.732;10.266;2024-03-23T15:48:15;7.80;99.90
20594;DHT22;10455;48.732;10.266;2024-03-23T15:53:17;7.60;99.90
20594;DHT22;10455;48.732;10.266;2024-03-23T15:58:18;6.70;99.90
20594;DHT22;10455;48.732;10.266;2024-03-23T16:03:23;6.80;99.90
20594;DHT22;10455;48.732;10.266;2024-03-23T16:08:25;6.60;99.90
20594;DHT22;10455;48.732;10.266;2024-03-23T16:13:27;6.20;99.90
20594;DHT22;10455;48.732;10.266;2024-03-23T16:18:31;5.80;99.90
20594;DHT22;10455;48.732;10.266;2024-03-23T16:23:33;6.00;99.90
20594;DHT22;10455;48.732;10.266;2024-03-23T16:28:35;6.50;99.90
20594;DHT22;10455;48.732;10.266;2024-03-23T16:33:39;6.50;99.90
20594;DHT22;10455;48.732;10.266;2024-03-23T16:38:42;6.60;99.90
20594;DHT22;10455;48.732;10.266;2024-03-23T16:43:44;6.40;99.90
20594;DHT22;10455;48.732;10.266;2024-03-23T16:48:47;6.40;99.90
20594;DHT22;10455;48.732;10.266;2024-03-23T16:53:49;6.30;99.90
20594;DHT22;10455;48.732;10.266;2024-03-23T16:58:51;6.10;99.90
20594;DHT22;10455;48.732;10.266;2024-03-23T17:03:54;5.60;99.90
20594;DHT22;10455;48.732;10.266;2024-03-23T17:08:56;5.30;99.90
20594;DHT22;10455;48.732;10.266;2024-03-23T17:13:59;5.20;99.90
20594;DHT22;10455;48.732;10.266;2024-03-23T17:19:02;5.00;99.90
20594;DHT22;10455;48.732;10.266;2024-03-23T17:24:05;4.90;99.90
20594;DHT22;10455;48.732;10.266;2024-03-23T17:29:09;5.10;99.90
20594;DHT22;10455;48.732;10.266;2024-03-23T17:34:12;5.10;99.90
20594;DHT22;10455;48.732;10.266;2024-03-23T17:39:14;4.80;99.90
20594;DHT22;10455;48.732;10.266;2024-03-23T17:44:16;4.60;99.90
20594;DHT22;10455;48.732;10.266;2024-03-23T17:49:19;4.40;99.90
20594;DHT22;10455;48.732;10.266;2024-03-23T17:54:21;4.30;99.90
20594;DHT22;10455;48.732;10.266;2024-03-23T17:59:23;4.40;99.90
20594;DHT22;10455;48.732;10.266;2024-03-23T18:04:26;4.50;99.90
20594;DHT22;10455;48.732;10.266;2024-03-23T18:09:28;4.60;99.90
20594;DHT22;10455;48.732;10.266;2024-03-23T18:14:31;4.80;99.90
20594;DHT22;10455;48.732;10.266;2024-03-23T18:19:34;5.00;99.90
20594;DHT22;10455;48.732;10.266;2024-03-23T18:24:36;4.80;99.90
20594;DHT22;10455;48.732;10.266;2024-03-23T18:29:38;4.60;99.90
20594;DHT22;10455;48.732;10.266;2024-03-23T18:34:41;4.50;99.90
20594;DHT22;10455;48.732;10.266;2024-03-23T18:39:43;4.50;99.90
20594;DHT22;10455;48.732;10.266;2024-03-23T18:44:45;4.70;99.90
20594;DHT22;10455;48.732;10.266;2024-03-23T18:49:48;4.60;99.90
20594;DHT22;10455;48.732;10.266;2024-03-23T18:54:50;4.60;99.90
20594;DHT22;10455;48.732;10.266;2024-03-23T18:59:52;4.70;99.90
20594;DHT22;10455;48.732;10.266;2024-03-23T19:04:55;4.40;99.90
20594;DHT22;10455;48.732;10.266;2024-03-23T19:09:59;4.00;99.90
20594;DHT22;10455;48.732;10.266;2024-03-23T19:15:01;3.30;99.90
20594;DHT22;10455;48.732;10.266;2024-03-23T19:20:07;2.40;99.90
20594;DHT22;10455;48.732;10.266;2024-03-23T19:25:09;2.20;99.90
20594;DHT22;10455;48.732;10.266;2024-03-23T19:30:11;2.20;99.90
20594;DHT22;10455;48.732;10.266;2024-03-23T19:35:15;2.20;99.90
20594;DHT22;10455;48.732;10.266;2024-03-23T19:40:17;2.10;99.90
20594;DHT22;10455;48.732;10.266;2024-03-23T19:45:19;2.10;99.90
20594;DHT22;10455;48.732;10.266;2024-03-23T19:50:23;2.30;99.90
20594;DHT22;10455;48.732;10.266;2024-03-23T19:55:24;2.30;99.90
20594;DHT22;10455;48.732;10.266;2024-03-23T20:00:27;2.10;99.90
20594;DHT22;10455;48.732;10.266;2024-03-23T20:05:30;2.10;99.90
20594;DHT22;10455;48.732;10.266;2024-03-23T20:10:32;2.00;99.90
20594;DHT22;10455;48.732;10.266;2024-03-23T20:15:34;2.10;99.90
20594;DHT22;10455;48.732;10.266;2024-03-23T20:20:37;2.10;99.90
20594;DHT22;10455;48.732;10.266;2024-03-23T20:25:39;2.00;99.90
20594;DHT22;10455;48.732;10.266;2024-03-23T20:30:41;2.00;99.90
20594;DHT22;10455;48.732;10.266;2024-03-23T20:35:48;2.00;99.90
20594;DHT22;10455;48.732;10.266;2024-03-23T20:40:51;2.00;99.90
20594;DHT22;10455;48.732;10.266;2024-03-23T20:45:58;2.00;99.90
20594;DHT22;10455;48.732;10.266;2024-03-23T20:51:02;1.80;99.90
20594;DHT22;10455;48.732;10.266;2024-03-23T21:01:09;1.80;99.90
20594;DHT22;10455;48.732;10.266;2024-03-23T21:06:15;1.70;99.90
20594;DHT22;10455;48.732;10.266;2024-03-23T21:11:18;1.70;99.90
20594;DHT22;10455;48.732;10.266;2024-03-23T21:26:28;1.70;99.90
20594;DHT22;10455;48.732;10.266;2024-03-23T21:31:32;1.60;99.90
20594;DHT22;10455;48.732;10.266;2024-03-23T21:36:35;1.60;99.90
20594;DHT22;10455;48.732;10.266;2024-03-23T21:41:37;1.60;99.90
20594;DHT22;10455;48.732;10.266;2024-03-23T21:46:39;1.60;99.90
20594;DHT22;10455;48.732;10.266;2024-03-23T21:51:42;1.50;99.90
20594;DHT22;10455;48.732;10.266;2024-03-23T21:56:44;1.50;99.90
20594;DHT22;10455;48.732;10.266;2024-03-23T22:01:46;1.50;99.90
20594;DHT22;10455;48.732;10.266;2024-03-23T22:06:50;1.50;99.90
20594;DHT22;10455;48.732;10.266;2024-03-23T22:11:52;1.50;99.90
20594;DHT22;10455;48.732;10.266;2024-03-23T22:16:54;1.50;99.90
20594;DHT22;10455;48.732;10.266;2024-03-23T22:21:57;1.40;99.90
20594;DHT22;10455;48.732;10.266;2024-03-23T22:26:59;1.60;99.90
20594;DHT22;10455;48.732;10.266;2024-03-23T22:32:00;1.70;99.90
20594;DHT22;10455;48.732;10.266;2024-03-23T22:37:05;1.70;99.90
20594;DHT22;10455;48.732;10.266;2024-03-23T22:42:07;1.60;99.90
20594;DHT22;10455;48.732;10.266;2024-03-23T22:47:09;1.60;99.90
20594;DHT22;10455;48.732;10.266;2024-03-23T22:52:12;1.80;99.90
20594;DHT22;10455;48.732;10.266;2024-03-23T22:57:14;1.90;99.90
20594;DHT22;10455;48.732;10.266;2024-03-23T23:02:16;1.90;99.90
20594;DHT22;10455;48.732;10.266;2024-03-23T23:07:19;1.90;99.90
20594;DHT22;10455;48.732;10.266;2024-03-23T23:12:21;1.80;99.90
20594;DHT22;10455;48.732;10.266;2024-03-23T23:17:23;1.80;99.90
20594;DHT22;10455;48.732;10.266;2024-03-23T23:22:26;1.90;99.90
20594;DHT22;10455;48.732;10.266;2024-03-23T23:27:28;1.70;99.90
20594;DHT22;10455;48.732;10.266;2024-03-23T23:32:30;1.60;99.90
20594;DHT22;10455;48.732;10.266;2024-03-23T23:37:34;1.50;99.90
20594;DHT22;10455;48.732;10.266;2024-03-23T23:42:36;1.50;99.90
20594;DHT22;10455;48.732;10.266;2024-03-23T23:47:38;1.40;99.90
20594;DHT22;10455;48.732;10.266;2024-03-23T23:52:41;1.70;99.90
20594;DHT22;10455;48.732;10.266;2024-03-23T23:57:44;1.90;99.90
